Time;durP1;ratioP1;P1;durP2;ratioP2;P2;SDS_P1;SDS_P2;PMS_P1;PMS_P2;Temp;Humidity;BMP_temperature;BMP_pressure;BME280_temperature;BME280_humidity;BME280_pressure;Samples;Min_cycle;Max_cycle;Signal;HPM_P1;HPM_P2
2021/01/20 00:00:09;;;;;;;30.37;17.70;;;;;;;1.73;72.64;99332.25;146717;1148;104468;-72
2021/01/20 00:03:12;;;;;;;31.17;18.27;;;;;;;1.74;72.45;99327.82;147197;1148;104605;-72
2021/01/20 00:06:15;;;;;;;32.17;18.07;;;;;;;1.71;72.93;99328.91;147063;1148;104561;-72
2021/01/20 00:09:18;;;;;;;30.90;18.43;;;;;;;1.70;72.74;99334.28;147106;1148;104533;-72
2021/01/20 00:12:21;;;;;;;29.40;16.83;;;;;;;1.68;73.38;99333.56;147193;1148;104611;-72
2021/01/20 00:15:25;;;;;;;34.00;18.42;;;;;;;1.64;72.97;99343.48;147165;1148;104502;-71
2021/01/20 00:18:28;;;;;;;34.75;19.10;;;;;;;1.67;73.44;99322.19;147180;1148;104609;-71
2021/01/20 00:21:31;;;;;;;27.77;15.93;;;;;;;1.72;72.97;99325.30;147263;1148;104620;-72
2021/01/20 00:24:35;;;;;;;30.88;17.60;;;;;;;1.78;73.01;99326.62;147111;1148;104600;-72
2021/01/20 00:27:38;;;;;;;28.85;17.10;;;;;;;1.76;72.41;99324.10;147155;1148;104822;-72
2021/01/20 00:30:41;;;;;;;31.15;17.75;;;;;;;1.77;72.45;99322.30;147226;1148;104485;-73
2021/01/20 00:33:44;;;;;;;29.92;18.02;;;;;;;1.74;72.70;99328.66;147139;1148;104617;-71
2021/01/20 00:36:47;;;;;;;26.43;14.87;;;;;;;1.71;73.12;99322.79;147215;1148;104583;-73
2021/01/20 00:39:50;;;;;;;32.63;19.10;;;;;;;1.68;73.00;99325.67;147219;1148;104915;-73
2021/01/20 00:42:53;;;;;;;35.07;19.60;;;;;;;1.74;72.71;99326.02;147144;1148;104559;-73
2021/01/20 00:45:56;;;;;;;25.63;14.77;;;;;;;1.78;73.65;99323.16;147227;1148;104541;-73
2021/01/20 00:48:59;;;;;;;27.93;16.47;;;;;;;1.82;73.70;99325.42;147247;1148;104657;-70
2021/01/20 00:52:03;;;;;;;26.83;17.17;;;;;;;1.85;73.24;99325.19;147205;1148;104537;-73
2021/01/20 00:55:10;;;;;;;29.30;17.40;;;;;;;1.86;72.67;99326.84;147051;1148;104562;-73
2021/01/20 00:58:14;;;;;;;30.02;18.42;;;;;;;1.83;73.57;99321.85;147124;1148;105226;-71
2021/01/20 01:01:17;;;;;;;27.27;16.07;;;;;;;1.79;72.61;99322.19;147212;1146;104483;-73
2021/01/20 01:04:20;;;;;;;29.72;17.90;;;;;;;1.76;72.74;99318.84;147089;1148;104572;-73
2021/01/20 01:07:24;;;;;;;33.53;19.25;;;;;;;1.81;73.42;99315.02;147222;1148;104484;-70
2021/01/20 01:10:27;;;;;;;29.20;16.00;;;;;;;1.85;73.72;99317.30;147055;1148;104432;-73
2021/01/20 01:13:50;;;;;;;28.75;17.05;;;;;;;1.88;72.77;99319.67;146740;1148;104873;-74
2021/01/20 01:17:12;;;;;;;28.15;16.70;;;;;;;1.89;73.30;99318.73;147268;1148;104480;-70
2021/01/20 01:20:41;;;;;;;29.67;16.93;;;;;;;1.89;73.53;99329.25;147157;1148;104689;-70
2021/01/20 01:23:45;;;;;;;29.77;17.20;;;;;;;1.88;72.51;99321.48;147135;1148;105062;-71
2021/01/20 01:26:48;;;;;;;29.55;17.52;;;;;;;1.85;73.73;99306.78;146981;1148;104488;-72
2021/01/20 01:29:52;;;;;;;33.83;19.50;;;;;;;1.80;72.89;99306.30;146998;1148;104476;-72
2021/01/20 01:33:06;;;;;;;43.60;24.12;;;;;;;1.82;72.70;99299.12;147161;1148;105049;-72
2021/01/20 01:36:13;;;;;;;29.27;16.00;;;;;;;1.87;73.43;99302.23;147201;1148;104556;-71
2021/01/20 01:39:16;;;;;;;33.60;20.60;;;;;;;1.91;73.67;99303.66;147195;1148;104565;-71
2021/01/20 01:42:29;;;;;;;30.43;18.43;;;;;;;1.92;72.90;99300.05;147249;1147;104469;-71
2021/01/20 01:45:32;;;;;;;42.20;26.57;;;;;;;1.91;73.62;99301.03;147279;1148;104529;-72
2021/01/20 01:48:36;;;;;;;38.58;23.83;;;;;;;1.90;73.13;99304.60;147200;1148;104482;-71
2021/01/20 01:51:40;;;;;;;52.70;29.33;;;;;;;1.85;72.68;99300.66;147213;1148;104638;-71
2021/01/20 01:55:03;;;;;;;37.33;22.57;;;;;;;1.79;73.60;99299.37;147202;1148;104535;-71
2021/01/20 01:58:33;;;;;;;73.33;40.48;;;;;;;1.82;72.96;99299.12;147145;1148;104556;-71
2021/01/20 02:01:41;;;;;;;29.83;18.20;;;;;;;1.87;74.07;99304.03;146825;1148;104482;-72
2021/01/20 02:04:46;;;;;;;37.33;22.22;;;;;;;1.90;72.90;99301.14;146904;1148;104506;-71
2021/01/20 02:07:51;;;;;;;63.52;38.38;;;;;;;1.92;73.54;99304.48;147070;1148;104556;-72
2021/01/20 02:11:07;;;;;;;32.45;19.70;;;;;;;1.93;72.95;99304.38;147288;1148;104504;-72
2021/01/20 02:14:22;;;;;;;46.13;27.32;;;;;;;1.88;73.46;99298.63;147054;1148;104557;-71
2021/01/20 02:17:38;;;;;;;37.47;22.80;;;;;;;1.84;73.17;99306.89;147145;1148;104523;-72
2021/01/20 02:21:09;;;;;;;66.70;37.15;;;;;;;1.80;74.15;99301.03;146941;1148;104470;-72
2021/01/20 02:24:17;;;;;;;52.15;29.50;;;;;;;1.78;73.65;99297.69;147195;1147;104543;-72
2021/01/20 02:27:48;;;;;;;49.45;26.80;;;;;;;1.87;73.14;99302.23;147216;1148;104546;-72
2021/01/20 02:30:56;;;;;;;38.20;22.58;;;;;;;1.90;74.31;99301.97;147230;1148;104470;-72
2021/01/20 02:34:11;;;;;;;33.18;20.65;;;;;;;1.93;73.86;99285.95;147157;1148;104572;-71
2021/01/20 02:37:16;;;;;;;27.42;17.40;;;;;;;1.92;73.76;99292.16;147178;1148;104557;-71
2021/01/20 02:40:37;;;;;;;28.30;17.40;;;;;;;1.89;73.11;99292.42;147019;1148;104566;-73
2021/01/20 02:44:00;;;;;;;;;;;;;;;1.83;73.12;99295.55;147182;1148;104482;-70
2021/01/20 02:47:13;;;;;;;34.07;19.80;;;;;;;1.83;73.91;99294.69;146836;1148;104482;-73
2021/01/20 02:50:32;;;;;;;30.52;18.25;;;;;;;1.88;72.88;99308.33;147034;1148;104500;-71
2021/01/20 02:53:36;;;;;;;23.57;14.53;;;;;;;1.94;73.24;99294.67;146556;1148;104572;-71
2021/01/20 02:56:45;;;;;;;29.12;17.35;;;;;;;1.96;73.70;99301.52;146585;1146;104524;-71
2021/01/20 02:59:59;;;;;;;26.85;16.55;;;;;;;1.98;73.85;99297.91;147160;1145;104638;-73
2021/01/20 03:03:16;;;;;;;30.32;17.23;;;;;;;1.96;73.31;99303.28;147165;1148;104502;-71
2021/01/20 03:06:21;;;;;;;28.55;17.20;;;;;;;1.96;73.64;99301.52;146999;1148;104473;-72
2021/01/20 03:09:25;;;;;;;26.33;16.97;;;;;;;1.91;74.14;99303.66;147140;1148;104502;-73
2021/01/20 03:12:29;;;;;;;30.47;17.70;;;;;;;1.85;73.59;99304.16;147136;1148;104626;-72
2021/01/20 03:15:35;;;;;;;30.37;17.62;;;;;;;1.88;73.42;99303.06;147095;1148;104557;-72
2021/01/20 03:18:38;;;;;;;28.45;16.73;;;;;;;1.92;73.34;99293.97;147174;1148;104557;-71
2021/01/20 03:21:41;;;;;;;25.23;15.60;;;;;;;1.98;74.10;99297.91;147129;1148;104479;-70
2021/01/20 03:24:44;;;;;;;26.90;16.23;;;;;;;1.99;73.68;99294.33;146576;1148;104535;-70
2021/01/20 03:27:48;;;;;;;25.32;15.30;;;;;;;2.01;73.19;99287.15;146722;1148;104574;-70
2021/01/20 03:30:51;;;;;;;26.97;17.07;;;;;;;2.01;73.77;99293.24;146910;1148;104559;-71
2021/01/20 03:33:54;;;;;;;27.48;17.35;;;;;;;1.98;74.29;99280.31;146697;1148;104557;-70
2021/01/20 03:36:57;;;;;;;28.97;17.83;;;;;;;1.96;74.43;99287.50;146477;1148;104521;-75
2021/01/20 03:40:00;;;;;;;28.85;17.98;;;;;;;1.91;73.54;99292.31;146617;1148;104470;-69
2021/01/20 03:43:04;;;;;;;32.93;19.40;;;;;;;1.90;73.90;99295.88;146918;1148;104647;-71
2021/01/20 03:46:07;;;;;;;25.95;15.98;;;;;;;1.93;74.30;99300.91;146741;1148;104499;-71
2021/01/20 03:49:10;;;;;;;27.37;16.40;;;;;;;1.93;74.47;99298.28;146918;1148;104466;-70
2021/01/20 03:52:13;;;;;;;24.90;16.00;;;;;;;1.91;74.39;99295.77;146881;1148;104588;-68
2021/01/20 03:55:17;;;;;;;36.23;20.50;;;;;;;1.93;73.74;99295.66;146904;1148;104460;-70
2021/01/20 03:58:20;;;;;;;54.53;33.20;;;;;;;1.90;73.54;99286.19;147019;1148;104683;-70
2021/01/20 04:01:23;;;;;;;68.40;36.80;;;;;;;1.87;74.76;99286.45;146975;1148;104547;-71
2021/01/20 04:04:26;;;;;;;42.13;23.93;;;;;;;1.92;74.53;99289.53;151414;1155;102336;-70
2021/01/20 04:07:29;;;;;;;44.77;27.20;;;;;;;1.96;74.09;99288.36;150796;1148;104464;-70
2021/01/20 04:10:33;;;;;;;57.95;33.28;;;;;;;2.03;73.99;99290.49;146629;1148;104564;-69
2021/01/20 04:13:37;;;;;;;44.70;26.37;;;;;;;2.07;74.44;99284.02;146504;1148;104439;-71
2021/01/20 04:16:43;;;;;;;30.55;18.55;;;;;;;2.12;73.60;99284.50;146747;1148;104459;-70
2021/01/20 04:19:46;;;;;;;120.70;70.32;;;;;;;2.11;74.02;99277.55;147058;1148;104500;-71
2021/01/20 04:22:50;;;;;;;37.42;21.52;;;;;;;2.09;73.51;99285.56;146925;1148;104482;-70
2021/01/20 04:25:53;;;;;;;35.08;21.40;;;;;;;2.05;73.49;99278.05;146958;1148;104563;-71
2021/01/20 04:28:56;;;;;;;23.47;14.58;;;;;;;1.98;73.57;99277.69;146964;1148;104635;-72
2021/01/20 04:31:59;;;;;;;35.38;20.95;;;;;;;1.95;74.03;99276.15;146881;1148;104924;-71
2021/01/20 04:35:03;;;;;;;29.57;17.63;;;;;;;1.99;74.45;99282.00;146601;1148;104562;-69
2021/01/20 04:38:06;;;;;;;21.68;11.63;;;;;;;2.04;74.47;99277.22;147077;1148;104551;-70
2021/01/20 04:41:09;;;;;;;26.93;17.07;;;;;;;2.07;73.78;99271.69;146699;1148;104479;-71
2021/01/20 04:44:12;;;;;;;36.73;22.00;;;;;;;2.07;74.09;99266.44;146589;1148;104624;-72
2021/01/20 04:47:16;;;;;;;25.48;15.72;;;;;;;2.08;73.89;99277.78;146825;1148;104558;-72
2021/01/20 04:50:21;;;;;;;25.23;16.67;;;;;;;2.04;73.81;99271.10;146542;1148;104512;-70
2021/01/20 04:53:27;;;;;;;24.10;16.05;;;;;;;2.02;73.75;99276.52;146602;1148;104473;-70
2021/01/20 04:56:31;;;;;;;33.93;20.37;;;;;;;2.03;73.80;99279.97;146960;1148;104559;-71
2021/01/20 04:59:35;;;;;;;27.00;16.00;;;;;;;2.04;73.75;99277.22;146960;1148;104611;-71
2021/01/20 05:02:39;;;;;;;28.07;17.73;;;;;;;2.06;74.17;99267.41;147014;1148;104572;-71
2021/01/20 05:05:42;;;;;;;25.57;16.00;;;;;;;2.10;73.92;99273.27;146478;1148;104474;-72
2021/01/20 05:08:45;;;;;;;21.17;13.72;;;;;;;2.12;73.50;99269.54;146643;1146;104548;-71
2021/01/20 05:11:48;;;;;;;30.02;19.37;;;;;;;2.10;73.55;99275.90;146597;1148;104502;-70
2021/01/20 05:14:51;;;;;;;26.25;15.83;;;;;;;2.06;74.59;99282.34;146502;1148;104696;-71
2021/01/20 05:17:58;;;;;;;19.87;12.27;;;;;;;2.05;74.55;99270.16;146643;1148;104524;-72
2021/01/20 05:21:16;;;;;;;33.85;20.15;;;;;;;2.02;73.87;99275.66;146689;1148;104469;-70
2021/01/20 05:24:22;;;;;;;23.83;14.50;;;;;;;2.03;74.05;99275.53;146913;1148;104519;-71
2021/01/20 05:27:29;;;;;;;18.57;12.40;;;;;;;2.12;73.58;99276.61;146713;1145;104556;-69
2021/01/20 05:30:45;;;;;;;20.67;13.53;;;;;;;2.17;74.59;99277.05;146520;1148;104636;-69
2021/01/20 05:33:49;;;;;;;22.55;14.20;;;;;;;2.20;74.93;99279.45;146841;1148;104559;-70
2021/01/20 05:37:06;;;;;;;45.10;22.63;;;;;;;2.20;73.88;99276.81;146834;1148;104551;-69
2021/01/20 05:40:12;;;;;;;34.20;24.13;;;;;;;2.19;74.02;99279.56;146932;1148;104568;-70
2021/01/20 05:43:24;;;;;;;72.15;43.28;;;;;;;2.16;73.79;99283.30;147029;1148;104483;-70
2021/01/20 05:46:30;;;;;;;;;;;;;;;2.14;74.94;99282.58;147025;1148;104564;-70
2021/01/20 05:49:33;;;;;;;332.02;176.57;;;;;;;2.17;75.21;99287.58;146847;1148;104562;-69
2021/01/20 05:52:36;;;;;;;48.38;24.57;;;;;;;2.22;73.70;99284.59;147006;1148;104530;-70
2021/01/20 05:55:40;;;;;;;429.95;204.65;;;;;;;2.28;74.00;99287.55;146562;1148;104464;-70
2021/01/20 05:58:43;;;;;;;121.07;53.10;;;;;;;2.33;73.64;99288.03;146563;1148;104479;-71
2021/01/20 06:01:47;;;;;;;303.48;142.03;;;;;;;2.38;74.22;99285.01;146592;1148;104529;-71
2021/01/20 06:04:51;;;;;;;155.87;67.13;;;;;;;2.38;74.54;99289.45;146786;1148;104596;-70
2021/01/20 06:07:55;;;;;;;169.30;83.25;;;;;;;2.38;74.54;99294.72;146645;1148;105067;-70
2021/01/20 06:10:59;;;;;;;475.95;243.00;;;;;;;2.36;74.06;99294.83;146624;1148;105023;-71
2021/01/20 06:14:03;;;;;;;220.93;95.67;;;;;;;2.31;74.69;99289.95;146743;1148;104572;-70
2021/01/20 06:17:16;;;;;;;223.13;90.45;;;;;;;2.27;75.08;99299.06;146531;1148;104480;-70
2021/01/20 06:20:23;;;;;;;155.37;69.80;;;;;;;2.30;75.35;99306.69;146535;1148;104502;-70
2021/01/20 06:23:28;;;;;;;386.27;176.15;;;;;;;2.35;75.33;99308.97;146771;1148;104602;-70
2021/01/20 06:26:33;;;;;;;93.22;45.65;;;;;;;2.43;74.08;99303.91;146635;1148;104485;-70
2021/01/20 06:29:42;;;;;;;120.67;61.00;;;;;;;2.47;74.09;99300.06;146564;1147;104905;-70
2021/01/20 06:32:48;;;;;;;83.65;41.77;;;;;;;2.52;74.67;99311.07;146647;1148;104629;-70
2021/01/20 06:35:52;;;;;;;56.97;30.27;;;;;;;2.55;74.95;99302.91;146574;1148;104554;-71
2021/01/20 06:38:55;;;;;;;149.45;72.97;;;;;;;2.54;74.42;99303.88;146888;1148;104501;-71
2021/01/20 06:42:00;;;;;;;204.07;103.17;;;;;;;2.54;74.16;99310.92;147020;1148;104556;-70
2021/01/20 06:45:17;;;;;;;84.70;46.53;;;;;;;2.52;74.82;99312.84;147074;1148;104482;-70
2021/01/20 06:48:20;;;;;;;229.40;103.05;;;;;;;2.47;74.52;99313.23;146787;1148;104624;-70
2021/01/20 06:51:24;;;;;;;74.17;40.80;;;;;;;2.51;75.40;99311.19;146995;1148;104580;-70
2021/01/20 06:54:35;;;;;;;60.95;34.40;;;;;;;2.54;75.58;99313.55;147030;1148;104559;-70
2021/01/20 06:57:41;;;;;;;33.40;21.10;;;;;;;2.57;75.50;99312.48;147087;1148;104572;-70
2021/01/20 07:01:04;;;;;;;104.20;65.97;;;;;;;2.62;75.49;99320.83;147097;1148;104559;-71
2021/01/20 07:04:07;;;;;;;35.15;22.32;;;;;;;2.62;75.39;99319.05;146488;1149;104639;-71
2021/01/20 07:07:12;;;;;;;28.87;17.67;;;;;;;2.62;74.88;99319.05;146802;1150;104499;-71
2021/01/20 07:10:15;;;;;;;38.60;20.60;;;;;;;2.61;73.90;99317.37;147006;1150;104527;-71
2021/01/20 07:13:37;;;;;;;76.07;37.65;;;;;;;2.67;75.02;99314.23;147189;1149;104562;-71
2021/01/20 07:16:40;;;;;;;161.77;73.05;;;;;;;2.77;74.90;99316.11;147038;1150;104464;-71
2021/01/20 07:19:45;;;;;;;48.83;30.15;;;;;;;2.78;74.93;99326.53;147051;1150;104656;-71
2021/01/20 07:22:48;;;;;;;96.32;66.02;;;;;;;2.81;74.85;99328.06;147194;1148;104608;-71
2021/01/20 07:25:54;;;;;;;39.85;26.37;;;;;;;2.81;73.97;99328.06;147136;1150;104958;-71
2021/01/20 07:28:57;;;;;;;111.35;70.15;;;;;;;2.81;75.09;99328.06;147028;1150;104904;-71
2021/01/20 07:32:01;;;;;;;47.73;28.77;;;;;;;2.81;74.03;99328.06;147049;1150;104565;-71
2021/01/20 07:35:16;;;;;;;41.80;28.02;;;;;;;2.80;75.51;99332.50;147024;1150;104585;-71
2021/01/20 07:38:19;;;;;;;37.50;22.35;;;;;;;2.86;75.16;99331.99;147042;1148;104569;-71
2021/01/20 07:41:25;;;;;;;30.03;18.57;;;;;;;2.93;75.34;99327.07;146709;1149;104468;-71
2021/01/20 07:44:28;;;;;;;49.15;33.25;;;;;;;3.00;74.21;99325.58;147277;1150;104567;-71
2021/01/20 07:47:46;;;;;;;36.68;21.95;;;;;;;3.06;74.30;99326.86;147076;1151;104480;-71
2021/01/20 07:50:50;;;;;;;33.63;21.83;;;;;;;3.09;75.31;99335.36;147043;1149;104684;-72
2021/01/20 07:54:01;;;;;;;26.77;16.77;;;;;;;3.09;73.93;99334.53;147039;1150;104572;-72
2021/01/20 07:57:05;;;;;;;36.03;22.80;;;;;;;3.12;74.82;99350.09;147057;1150;104535;-71
2021/01/20 08:00:11;;;;;;;57.30;36.77;;;;;;;3.12;74.68;99352.73;146691;1150;104558;-72
2021/01/20 08:03:32;;;;;;;29.73;17.00;;;;;;;3.18;75.00;99344.31;146813;1149;104494;-71
2021/01/20 08:06:42;;;;;;;43.25;28.12;;;;;;;3.31;74.27;99338.83;146604;1149;104546;-70
2021/01/20 08:09:46;;;;;;;25.25;15.05;;;;;;;3.43;74.56;99329.89;146986;1150;104585;-70
2021/01/20 08:12:52;;;;;;;27.17;17.75;;;;;;;3.58;75.26;99332.18;147080;1150;104516;-70
2021/01/20 08:15:55;;;;;;;32.50;20.87;;;;;;;3.69;74.31;99335.56;147040;1150;104559;-70
2021/01/20 08:18:59;;;;;;;33.92;19.67;;;;;;;3.75;75.22;99342.12;147041;1150;104492;-70
2021/01/20 08:22:04;;;;;;;27.15;16.93;;;;;;;3.81;74.41;99346.03;147049;1150;104624;-71
2021/01/20 08:25:10;;;;;;;26.70;16.87;;;;;;;3.84;74.94;99341.34;147016;1150;104495;-70
2021/01/20 08:28:15;;;;;;;33.58;19.62;;;;;;;3.88;73.87;99345.37;147022;1149;104588;-70
2021/01/20 08:31:22;;;;;;;69.92;36.40;;;;;;;3.89;74.28;99362.06;147001;1148;104959;-71
2021/01/20 08:34:25;;;;;;;124.75;67.75;;;;;;;3.95;74.30;99363.34;147073;1148;104562;-71
2021/01/20 08:37:36;;;;;;;108.65;56.63;;;;;;;4.00;74.19;99353.20;147138;1148;104441;-71
2021/01/20 08:40:39;;;;;;;245.30;123.07;;;;;;;4.07;74.17;99356.98;147192;1148;104485;-71
2021/01/20 08:43:42;;;;;;;88.58;50.08;;;;;;;4.10;74.69;99364.66;147342;1148;104562;-72
2021/01/20 08:46:53;;;;;;;277.02;130.15;;;;;;;4.11;74.69;99361.86;147419;1148;104566;-73
2021/01/20 08:49:57;;;;;;;86.87;45.53;;;;;;;4.13;74.55;99374.92;147186;1148;104960;-71
2021/01/20 08:53:02;;;;;;;103.93;54.27;;;;;;;4.12;74.69;99368.82;147143;1149;104634;-71
2021/01/20 08:56:09;;;;;;;97.78;48.48;;;;;;;4.13;74.42;99367.01;147289;1150;104578;-72
2021/01/20 08:59:12;;;;;;;88.22;47.30;;;;;;;4.23;74.72;99365.22;147156;1150;104510;-71
2021/01/20 09:02:19;;;;;;;82.77;41.80;;;;;;;4.32;74.70;99364.42;147158;1150;104483;-71
2021/01/20 09:05:33;;;;;;;67.50;35.65;;;;;;;4.41;74.16;99368.07;147240;1150;104893;-71
2021/01/20 09:08:38;;;;;;;296.45;120.95;;;;;;;4.45;74.08;99373.92;147133;1148;104927;-73
2021/01/20 09:11:42;;;;;;;155.85;80.22;;;;;;;4.47;74.38;99369.34;147220;1148;104502;-71
2021/01/20 09:14:46;;;;;;;50.75;26.48;;;;;;;4.48;74.04;99378.92;147175;1148;104501;-71
2021/01/20 09:17:49;;;;;;;89.17;39.73;;;;;;;4.46;74.51;99375.58;147212;1151;104539;-71
2021/01/20 09:20:53;;;;;;;60.28;29.15;;;;;;;4.47;74.42;99369.34;147191;1150;104489;-71
2021/01/20 09:23:56;;;;;;;62.50;29.92;;;;;;;4.55;74.29;99371.30;147159;1149;104662;-71
2021/01/20 09:26:59;;;;;;;36.87;21.03;;;;;;;4.64;74.01;99368.67;147183;1151;104601;-72
2021/01/20 09:30:02;;;;;;;86.65;42.53;;;;;;;4.75;74.37;99359.77;147075;1149;104524;-71
2021/01/20 09:33:06;;;;;;;137.00;59.85;;;;;;;4.86;74.47;99361.45;147080;1151;104831;-71
2021/01/20 09:36:10;;;;;;;266.33;90.73;;;;;;;4.91;73.87;99364.53;147177;1149;104460;-72
2021/01/20 09:39:14;;;;;;;140.22;60.83;;;;;;;4.94;74.05;99361.59;147177;1150;104562;-71
2021/01/20 09:42:17;;;;;;;51.50;29.27;;;;;;;4.96;74.06;99361.45;147211;1150;104508;-71
2021/01/20 09:45:22;;;;;;;73.87;37.88;;;;;;;4.97;74.21;99358.68;147106;1150;104535;-71
2021/01/20 09:48:25;;;;;;;48.23;26.90;;;;;;;5.01;74.02;99359.23;147141;1149;104471;-72
2021/01/20 09:51:30;;;;;;;56.33;31.25;;;;;;;5.11;74.42;99358.24;147087;1149;104456;-71
2021/01/20 09:54:34;;;;;;;43.63;24.60;;;;;;;5.29;73.98;99346.95;147155;1148;104646;-72
2021/01/20 09:57:37;;;;;;;50.80;32.77;;;;;;;5.40;73.72;99357.38;146888;1148;104486;-72
2021/01/20 10:00:40;;;;;;;33.00;21.05;;;;;;;5.43;73.55;99354.46;146850;1151;104566;-71
2021/01/20 10:03:43;;;;;;;37.33;25.20;;;;;;;5.47;73.85;99355.84;146908;1150;104554;-73
2021/01/20 10:06:46;;;;;;;78.75;38.75;;;;;;;5.49;73.77;99353.88;147105;1150;104501;-72
2021/01/20 10:09:49;;;;;;;34.53;21.40;;;;;;;5.51;73.60;99361.69;147150;1148;104663;-72
2021/01/20 10:12:54;;;;;;;73.80;37.83;;;;;;;5.57;73.52;99360.28;147222;1148;104601;-71
2021/01/20 10:15:57;;;;;;;195.22;75.75;;;;;;;5.59;73.82;99358.33;147178;1148;104569;-71
2021/01/20 10:19:00;;;;;;;47.67;26.75;;;;;;;5.68;73.07;99362.77;147175;1148;104476;-71
2021/01/20 10:22:03;;;;;;;69.20;33.85;;;;;;;5.77;73.61;99358.41;147125;1148;104556;-71
2021/01/20 10:25:09;;;;;;;37.20;21.77;;;;;;;5.87;73.19;99341.52;146868;1148;104550;-71
2021/01/20 10:28:12;;;;;;;158.45;67.58;;;;;;;5.93;72.92;99345.41;147127;1148;104505;-72
2021/01/20 10:31:15;;;;;;;50.37;27.77;;;;;;;5.97;72.10;99338.86;147215;1148;104467;-72
2021/01/20 10:34:18;;;;;;;33.53;21.00;;;;;;;6.01;73.63;99342.88;147155;1148;104931;-71
2021/01/20 10:37:21;;;;;;;237.35;213.40;;;;;;;6.05;73.39;99335.48;147201;1148;104551;-71
2021/01/20 10:40:24;;;;;;;50.20;36.83;;;;;;;6.03;73.21;99342.74;147170;1148;104599;-72
2021/01/20 10:43:28;;;;;;;35.33;22.22;;;;;;;6.00;72.76;99343.02;147197;1148;104513;-71
2021/01/20 10:46:31;;;;;;;32.50;20.60;;;;;;;5.98;72.86;99337.04;147162;1148;104481;-71
2021/01/20 10:49:35;;;;;;;38.60;23.27;;;;;;;6.04;72.38;99331.16;147176;1148;104596;-71
2021/01/20 10:52:38;;;;;;;77.47;39.25;;;;;;;6.15;72.83;99330.13;147181;1148;104474;-71
2021/01/20 10:55:41;;;;;;;61.28;34.60;;;;;;;6.21;72.10;99327.72;147149;1148;104657;-71
2021/01/20 10:58:45;;;;;;;79.22;45.28;;;;;;;6.24;72.32;99323.95;147149;1148;104580;-72
2021/01/20 11:01:48;;;;;;;60.03;36.23;;;;;;;6.23;71.74;99312.50;146883;1149;104439;-71
2021/01/20 11:04:51;;;;;;;30.20;19.67;;;;;;;6.12;72.31;99315.38;147028;1148;104508;-70
2021/01/20 11:07:55;;;;;;;35.33;24.03;;;;;;;6.05;72.32;99311.64;146973;1148;104597;-70
2021/01/20 11:10:58;;;;;;;28.42;19.70;;;;;;;6.04;71.88;99305.53;147046;1150;104625;-72
2021/01/20 11:14:01;;;;;;;48.83;27.87;;;;;;;5.98;72.70;99316.68;147173;1150;104544;-71
2021/01/20 11:17:04;;;;;;;30.10;17.65;;;;;;;5.97;72.29;99306.26;147046;1150;104475;-70
2021/01/20 11:20:11;;;;;;;26.65;17.57;;;;;;;6.06;71.76;99313.30;147024;1148;104600;-69
2021/01/20 11:23:17;;;;;;;38.10;25.43;;;;;;;6.12;71.26;99302.14;147073;1148;104534;-69
2021/01/20 11:26:20;;;;;;;26.25;17.20;;;;;;;6.13;71.96;99297.67;147080;1148;104570;-69
2021/01/20 11:29:24;;;;;;;24.12;16.15;;;;;;;6.13;71.59;99293.20;147104;1148;104457;-70
2021/01/20 11:32:28;;;;;;;29.65;17.42;;;;;;;6.08;71.12;99290.14;146945;1148;104467;-69
2021/01/20 11:35:31;;;;;;;23.05;15.90;;;;;;;6.03;71.40;99289.78;146930;1148;104461;-70
2021/01/20 11:38:34;;;;;;;26.90;17.92;;;;;;;5.97;72.07;99277.95;147082;1148;104515;-70
2021/01/20 11:41:38;;;;;;;68.40;37.00;;;;;;;5.93;71.96;99281.86;147079;1148;104978;-70
2021/01/20 11:44:41;;;;;;;52.75;28.12;;;;;;;5.94;71.64;99277.39;147067;1148;104488;-70
2021/01/20 11:47:44;;;;;;;166.70;83.22;;;;;;;5.97;71.51;99274.48;147078;1148;104483;-70
2021/01/20 11:50:48;;;;;;;94.17;49.50;;;;;;;6.02;71.99;99272.20;147053;1148;104551;-70
2021/01/20 11:53:51;;;;;;;126.45;70.62;;;;;;;6.08;71.41;99280.41;147060;1148;104472;-70
2021/01/20 11:56:55;;;;;;;74.27;42.43;;;;;;;6.16;71.07;99265.57;147000;1148;104767;-70
2021/01/20 11:59:59;;;;;;;97.50;62.43;;;;;;;6.12;71.54;99265.06;146755;1148;104560;-70
2021/01/20 12:03:02;;;;;;;63.73;41.13;;;;;;;6.09;71.84;99260.05;146660;1148;104483;-70
2021/01/20 12:06:07;;;;;;;68.07;40.85;;;;;;;6.05;71.54;99253.39;146458;1148;104485;-70
2021/01/20 12:09:10;;;;;;;63.00;36.85;;;;;;;6.01;71.34;99257.31;146540;1148;104578;-71
2021/01/20 12:12:14;;;;;;;46.63;30.75;;;;;;;5.92;71.01;99255.52;146539;1148;104650;-70
2021/01/20 12:15:17;;;;;;;117.90;83.52;;;;;;;5.83;71.41;99252.78;146616;1148;104589;-70
2021/01/20 12:18:20;;;;;;;34.97;22.50;;;;;;;5.77;71.20;99248.05;146681;1148;104490;-70
2021/01/20 12:21:23;;;;;;;121.13;79.87;;;;;;;5.80;71.46;99246.95;146744;1148;104608;-70
2021/01/20 12:24:27;;;;;;;52.27;33.80;;;;;;;5.82;71.80;99235.22;146690;1148;104473;-70
2021/01/20 12:27:33;;;;;;;80.53;55.70;;;;;;;5.88;71.95;99239.92;146731;1148;104580;-70
2021/01/20 12:30:36;;;;;;;49.48;31.57;;;;;;;5.88;71.97;99233.80;146990;1148;104611;-70
2021/01/20 12:33:40;;;;;;;38.63;27.62;;;;;;;5.92;71.29;99240.45;146486;1148;104533;-70
2021/01/20 12:36:45;;;;;;;49.67;38.28;;;;;;;5.89;71.91;99236.30;146544;1148;104530;-69
2021/01/20 12:39:48;;;;;;;29.17;19.17;;;;;;;5.88;71.25;99247.86;146776;1148;104665;-70
2021/01/20 12:42:52;;;;;;;48.45;37.53;;;;;;;5.87;71.37;99243.56;147455;1148;104545;-69
2021/01/20 12:45:55;;;;;;;43.28;30.05;;;;;;;5.86;71.33;99243.70;147079;1148;104463;-70
2021/01/20 12:48:58;;;;;;;30.82;18.98;;;;;;;5.80;71.95;99231.89;147063;1147;104499;-70
2021/01/20 12:52:01;;;;;;;36.65;22.65;;;;;;;5.81;71.43;99235.36;147017;1148;104563;-70
2021/01/20 12:55:06;;;;;;;43.53;26.17;;;;;;;5.82;71.16;99229.92;147017;1148;104465;-70
2021/01/20 12:58:09;;;;;;;34.58;20.92;;;;;;;5.88;71.77;99233.80;147084;1148;104640;-70
2021/01/20 13:01:13;;;;;;;71.87;49.75;;;;;;;5.94;71.02;99240.31;147135;1148;104860;-70
2021/01/20 13:04:16;;;;;;;47.75;32.20;;;;;;;5.90;71.20;99230.02;147084;1148;104479;-70
2021/01/20 13:07:19;;;;;;;30.85;19.67;;;;;;;5.88;71.33;99233.80;147068;1148;104476;-70
2021/01/20 13:10:23;;;;;;;43.80;30.65;;;;;;;5.85;71.00;99242.88;146959;1148;104563;-70
2021/01/20 13:13:28;;;;;;;52.40;31.12;;;;;;;5.80;71.91;99242.48;147062;1148;104541;-69
2021/01/20 13:16:32;;;;;;;31.68;19.23;;;;;;;5.74;70.85;99231.66;147065;1148;104961;-70
2021/01/20 13:19:35;;;;;;;30.45;18.05;;;;;;;5.66;71.70;99237.69;147054;1148;104479;-69
2021/01/20 13:22:38;;;;;;;28.03;16.20;;;;;;;5.63;71.38;99236.14;147141;1148;104831;-69
2021/01/20 13:25:42;;;;;;;41.60;23.37;;;;;;;5.64;71.90;99235.18;147057;1150;104588;-69
2021/01/20 13:28:45;;;;;;;31.37;18.23;;;;;;;5.68;71.61;99236.55;147017;1151;104457;-69
2021/01/20 13:31:49;;;;;;;34.88;20.32;;;;;;;5.69;71.67;99248.78;147071;1150;104559;-69
2021/01/20 13:34:52;;;;;;;37.13;20.70;;;;;;;5.71;71.57;99243.35;147057;1150;104486;-69
2021/01/20 13:37:55;;;;;;;34.35;21.25;;;;;;;5.68;71.64;99256.90;146804;1150;104564;-69
2021/01/20 13:40:58;;;;;;;31.68;19.32;;;;;;;5.64;71.53;99242.27;146618;1150;104553;-69
2021/01/20 13:44:01;;;;;;;31.95;17.92;;;;;;;5.64;70.95;99250.20;147085;1149;104622;-69
2021/01/20 13:47:05;;;;;;;31.87;19.30;;;;;;;5.59;71.08;99253.30;147034;1150;104479;-69
2021/01/20 13:50:11;;;;;;;31.93;17.35;;;;;;;5.54;71.77;99249.42;147029;1149;104564;-69
2021/01/20 13:53:14;;;;;;;47.55;25.25;;;;;;;5.54;71.49;99244.13;146621;1150;104564;-69
2021/01/20 13:56:17;;;;;;;31.40;17.42;;;;;;;5.59;71.50;99248.01;146576;1150;104551;-70
2021/01/20 13:59:20;;;;;;;27.60;18.07;;;;;;;5.63;71.33;99243.26;146762;1150;104513;-69
2021/01/20 14:02:24;;;;;;;31.85;19.57;;;;;;;5.64;70.99;99250.20;146803;1150;104548;-70